Time;durP1;ratioP1;P1;durP2;ratioP2;P2;SDS_P1;SDS_P2;PMS_P1;PMS_P2;Temp;Humidity;BMP_temperature;BMP_pressure;BME280_temperature;BME280_humidity;BME280_pressure;Samples;Min_cycle;Max_cycle;Signal;HPM_P1;HPM_P2
2023/12/01 00:00:40;;;;;;;30.45;13.45;;;0.80;99.90;;;;;;5285578;28;20039;-33
2023/12/01 00:03:15;;;;;;;31.55;12.40;;;0.80;99.90;;;;;;5289638;28;20214;-33
2023/12/01 00:05:51;;;;;;;25.83;12.70;;;0.90;99.90;;;;;;5289022;28;20042;-33
2023/12/01 00:08:25;;;;;;;32.05;11.93;;;1.00;99.90;;;;;;5283281;28;20400;-33
2023/12/01 00:10:58;;;;;;;30.10;12.57;;;1.00;99.90;;;;;;5268525;28;20016;-33
2023/12/01 00:13:32;;;;;;;29.23;12.48;;;1.00;99.90;;;;;;5278707;28;20035;-33
2023/12/01 00:16:04;;;;;;;35.35;12.40;;;0.90;99.90;;;;;;5286823;28;20227;-33
2023/12/01 00:18:38;;;;;;;33.63;13.88;;;0.90;99.90;;;;;;5293317;28;20036;-33
2023/12/01 00:21:10;;;;;;;29.65;11.65;;;0.90;99.90;;;;;;5285808;28;20381;-33
2023/12/01 00:23:41;;;;;;;33.83;14.18;;;1.00;99.90;;;;;;5279859;28;20027;-33
2023/12/01 00:26:15;;;;;;;31.58;12.73;;;1.00;99.90;;;;;;5293201;28;20023;-33
2023/12/01 00:28:46;;;;;;;30.55;13.00;;;1.00;99.90;;;;;;5273659;28;20231;-33
2023/12/01 00:31:18;;;;;;;30.60;11.73;;;1.10;99.90;;;;;;5269130;28;20040;-33
2023/12/01 00:33:51;;;;;;;32.00;13.32;;;1.10;99.90;;;;;;5293404;28;20039;-33
2023/12/01 00:36:26;;;;;;;34.80;12.13;;;1.20;99.90;;;;;;5289081;28;20036;-33
2023/12/01 00:39:03;;;;;;;32.78;12.70;;;1.30;99.90;;;;;;5270797;28;20032;-33
2023/12/01 00:41:34;;;;;;;26.58;12.95;;;1.30;99.90;;;;;;5272039;28;20342;-33
2023/12/01 00:44:05;;;;;;;30.17;13.63;;;1.40;99.90;;;;;;5271639;27;20235;-33
2023/12/01 00:46:39;;;;;;;20.42;10.70;;;1.40;99.90;;;;;;5273461;28;20254;-34
2023/12/01 00:49:13;;;;;;;28.85;13.55;;;1.50;99.90;;;;;;5288372;28;20032;-33
2023/12/01 00:51:45;;;;;;;30.70;13.48;;;1.40;99.90;;;;;;5292835;28;20058;-33
2023/12/01 00:54:16;;;;;;;33.50;13.02;;;1.40;99.90;;;;;;5292146;28;20341;-33
2023/12/01 00:56:47;;;;;;;25.42;11.95;;;1.30;90.30;;;;;;5288915;28;20503;-33
2023/12/01 00:59:19;;;;;;;33.22;13.48;;;1.20;97.70;;;;;;5272030;28;20036;-33
2023/12/01 01:01:50;;;;;;;33.40;12.68;;;1.20;99.90;;;;;;5273646;28;20023;-33
2023/12/01 01:04:24;;;;;;;26.58;11.32;;;1.20;99.90;;;;;;5287739;28;20042;-34
2023/12/01 01:06:57;;;;;;;30.58;14.15;;;1.20;99.90;;;;;;5289715;28;20323;-33
2023/12/01 01:09:29;;;;;;;37.38;13.00;;;1.10;99.90;;;;;;5290196;28;20023;-33
2023/12/01 01:12:01;;;;;;;26.13;13.13;;;1.10;99.90;;;;;;5289946;27;20041;-33
2023/12/01 01:14:38;;;;;;;27.17;11.70;;;1.10;99.90;;;;;;5290722;28;20042;-33
2023/12/01 01:17:14;;;;;;;42.83;13.15;;;1.20;99.90;;;;;;5289031;28;20189;-33
2023/12/01 01:19:45;;;;;;;34.58;12.40;;;1.20;99.90;;;;;;5292388;28;20046;-33
2023/12/01 01:22:20;;;;;;;35.40;12.95;;;1.20;99.90;;;;;;5292364;28;20031;-33
2023/12/01 01:24:51;;;;;;;31.40;12.88;;;1.30;99.90;;;;;;5291381;28;20026;-33
2023/12/01 01:27:25;;;;;;;31.92;12.85;;;1.20;99.90;;;;;;5292417;28;20209;-33
2023/12/01 01:29:56;;;;;;;30.20;13.43;;;1.20;99.90;;;;;;5292290;28;20530;-33
2023/12/01 01:32:27;;;;;;;33.38;12.32;;;1.10;99.90;;;;;;5289152;28;20050;-33
2023/12/01 01:35:01;;;;;;;32.80;13.50;;;1.10;99.90;;;;;;5290154;28;20041;-33
2023/12/01 01:37:34;;;;;;;29.55;13.88;;;1.00;99.90;;;;;;5291993;28;20045;-33
2023/12/01 01:40:09;;;;;;;33.38;13.27;;;1.00;99.90;;;;;;5278141;28;20028;-33
2023/12/01 01:42:40;;;;;;;32.88;13.40;;;1.00;99.90;;;;;;5280244;27;20042;-33
2023/12/01 01:45:11;;;;;;;31.98;14.05;;;1.10;99.90;;;;;;5298645;27;20037;-33
2023/12/01 01:47:45;;;;;;;26.00;11.90;;;1.10;99.90;;;;;;5298994;27;20032;-33
2023/12/01 01:50:17;;;;;;;27.25;11.82;;;1.20;99.90;;;;;;5292312;27;20505;-34
2023/12/01 01:52:52;;;;;;;33.00;12.23;;;1.30;99.90;;;;;;5292643;28;20061;-33
2023/12/01 01:55:23;;;;;;;;;;;1.40;99.90;;;;;;5292681;28;20236;-33
2023/12/01 01:57:56;;;;;;;33.40;13.68;;;1.50;99.90;;;;;;5303298;27;19907;-33
2023/12/01 02:00:33;;;;;;;29.52;13.40;;;1.70;99.90;;;;;;5290418;27;20051;-33
2023/12/01 02:03:05;;;;;;;36.35;13.43;;;1.70;99.90;;;;;;5291913;27;20036;-33
2023/12/01 02:05:39;;;;;;;27.58;11.98;;;1.80;99.90;;;;;;5290986;28;20235;-33
2023/12/01 02:08:27;;;;;;;26.38;11.43;;;1.90;99.90;;;;;;5290084;28;20387;-33
2023/12/01 02:11:05;;;;;;;32.25;13.50;;;1.90;99.90;;;;;;5291040;28;20027;-33
2023/12/01 02:13:36;;;;;;;31.15;12.23;;;1.90;99.90;;;;;;5291637;28;20023;-33
2023/12/01 02:16:10;;;;;;;26.88;11.75;;;1.90;99.90;;;;;;5288193;28;20037;-33
2023/12/01 02:18:44;;;;;;;;;;;1.80;85.40;;;;;;5289761;28;20040;-33
2023/12/01 02:21:15;;;;;;;27.70;11.13;;;1.80;52.90;;;;;;5291870;28;19900;-33
2023/12/01 02:23:52;;;;;;;30.70;12.63;;;1.70;39.80;;;;;;5291402;28;20129;-33
2023/12/01 02:26:24;;;;;;;31.75;12.25;;;1.80;57.00;;;;;;5306746;27;20026;-33
2023/12/01 02:28:58;;;;;;;27.75;11.70;;;1.80;66.20;;;;;;5293549;27;20319;-33
2023/12/01 02:31:37;;;;;;;22.80;10.63;;;1.80;39.00;;;;;;5310518;27;20345;-33
2023/12/01 02:34:08;;;;;;;29.35;12.45;;;1.90;42.70;;;;;;5310770;27;20043;-33
2023/12/01 02:36:39;;;;;;;28.00;11.43;;;1.90;19.20;;;;;;5312767;27;20023;-33
2023/12/01 02:39:18;;;;;;;22.88;10.35;;;1.90;44.90;;;;;;5311848;27;20045;-33
2023/12/01 02:41:52;;;;;;;25.00;10.60;;;2.00;76.70;;;;;;5311438;27;20057;-33
2023/12/01 02:44:23;;;;;;;26.00;10.77;;;2.10;99.90;;;;;;5311911;27;20183;-33
2023/12/01 02:46:54;;;;;;;26.17;10.80;;;2.20;99.90;;;;;;5308610;27;20031;-33
2023/12/01 02:49:25;;;;;;;27.08;10.48;;;2.30;99.90;;;;;;5292591;27;20041;-33
2023/12/01 02:51:59;;;;;;;25.25;10.80;;;2.30;98.60;;;;;;5309371;27;20027;-33
2023/12/01 02:54:33;;;;;;;23.95;10.23;;;2.30;74.60;;;;;;5297579;27;20024;-33
2023/12/01 02:57:06;;;;;;;;;;;2.40;60.80;;;;;;5308638;27;20041;-33
2023/12/01 02:59:43;;;;;;;22.05;10.45;;;2.40;51.70;;;;;;5296725;27;19913;-33
2023/12/01 03:02:15;;;;;;;29.90;11.38;;;2.40;20.20;;;;;;5285270;28;20041;-33
2023/12/01 03:04:49;;;;;;;23.80;10.48;;;2.30;2.00;;;;;;5289459;28;20056;-34
2023/12/01 03:07:21;;;;;;;27.40;11.60;;;2.40;33.60;;;;;;5289170;28;20552;-34
2023/12/01 03:09:53;;;;;;;21.65;11.05;;;2.40;47.80;;;;;;5288823;28;20032;-34
2023/12/01 03:12:24;;;;;;;25.52;11.23;;;2.50;6.70;;;;;;5288307;28;20035;-33
2023/12/01 03:15:00;;;;;;;23.63;10.75;;;2.50;1.00;;;;;;5290411;28;20072;-34
2023/12/01 03:17:32;;;;;;;27.52;10.52;;;2.30;1.00;;;;;;5289514;28;20059;-33
2023/12/01 03:20:09;;;;;;;24.25;10.85;;;2.30;1.00;;;;;;5292682;28;20042;-33
2023/12/01 03:22:45;;;;;;;25.55;11.63;;;2.20;1.00;;;;;;5293680;28;20030;-33
2023/12/01 03:25:17;;;;;;;27.25;11.27;;;2.30;1.00;;;;;;5307622;28;20033;-34
2023/12/01 03:27:48;;;;;;;26.67;12.82;;;2.30;1.00;;;;;;5288406;28;20053;-33
2023/12/01 03:30:23;;;;;;;25.92;11.60;;;2.20;1.00;;;;;;5287687;28;20031;-33
2023/12/01 03:32:56;;;;;;;;;;;2.10;1.00;;;;;;5290977;28;20039;-33
2023/12/01 03:35:30;;;;;;;21.17;10.68;;;2.10;1.00;;;;;;5289781;28;19912;-33
2023/12/01 03:38:01;;;;;;;23.30;11.90;;;2.10;1.00;;;;;;5289516;28;20032;-33
2023/12/01 03:40:33;;;;;;;24.00;11.40;;;2.00;1.00;;;;;;5288571;28;20319;-33
2023/12/01 03:43:04;;;;;;;31.08;11.57;;;2.00;1.00;;;;;;5304656;28;20456;-33
2023/12/01 03:45:35;;;;;;;31.55;11.98;;;2.00;1.00;;;;;;5306057;28;20023;-33
2023/12/01 03:48:07;;;;;;;30.48;13.50;;;1.90;2.10;;;;;;5291087;28;20047;-33
2023/12/01 03:50:38;;;;;;;28.55;12.07;;;1.90;18.20;;;;;;5313075;27;20276;-33
2023/12/01 03:53:30;;;;;;;24.92;11.93;;;1.80;31.00;;;;;;5301997;27;20334;-33
2023/12/01 03:56:03;;;;;;;24.63;11.10;;;1.90;50.10;;;;;;5295218;27;20031;-33
2023/12/01 03:58:35;;;;;;;30.13;13.38;;;1.90;76.90;;;;;;5291128;27;20224;-33
2023/12/01 04:01:06;;;;;;;25.88;11.43;;;2.00;63.20;;;;;;5311263;27;20035;-33
2023/12/01 04:03:39;;;;;;;24.52;11.45;;;2.00;78.30;;;;;;5290483;28;20331;-33
2023/12/01 04:06:11;;;;;;;31.20;13.20;;;1.90;46.90;;;;;;5292672;27;20027;-34
2023/12/01 04:08:43;;;;;;;31.20;12.52;;;1.90;20.70;;;;;;5313902;27;20103;-33
2023/12/01 04:11:14;;;;;;;33.97;12.27;;;1.90;74.70;;;;;;5294061;27;20034;-31
2023/12/01 04:13:50;;;;;;;27.55;11.85;;;1.90;66.00;;;;;;5294777;27;20034;-34
2023/12/01 04:16:24;;;;;;;28.63;11.88;;;1.90;93.80;;;;;;5290505;27;20031;-32
2023/12/01 04:18:56;;;;;;;23.52;11.68;;;2.00;66.20;;;;;;5294628;27;20100;-32
2023/12/01 04:21:27;;;;;;;27.42;11.82;;;1.90;43.20;;;;;;5313749;27;20057;-31
2023/12/01 04:24:03;;;;;;;28.48;13.02;;;2.00;99.90;;;;;;5313684;27;20057;-32
2023/12/01 04:26:34;;;;;;;27.17;13.00;;;2.10;77.80;;;;;;5292334;27;20037;-32
2023/12/01 04:29:14;;;;;;;30.65;13.45;;;2.00;30.00;;;;;;5312383;27;20035;-32
2023/12/01 04:31:49;;;;;;;31.95;12.30;;;1.90;1.00;;;;;;5311114;27;20557;-32
2023/12/01 04:34:21;;;;;;;27.52;10.93;;;2.00;58.50;;;;;;5312448;27;20060;-34
2023/12/01 04:36:54;;;;;;;26.85;12.23;;;2.10;71.20;;;;;;5313178;27;20185;-32
2023/12/01 04:39:28;;;;;;;24.60;10.88;;;2.10;37.50;;;;;;5310304;27;20343;-32
2023/12/01 04:41:59;;;;;;;23.58;11.68;;;2.20;50.80;;;;;;5312830;27;20039;-32
2023/12/01 04:44:34;;;;;;;28.48;12.27;;;2.30;64.30;;;;;;5309867;27;20050;-32
2023/12/01 04:47:05;;;;;;;22.48;10.82;;;2.40;47.40;;;;;;5288682;28;20023;-32
2023/12/01 04:49:39;;;;;;;30.38;13.18;;;2.40;10.10;;;;;;5291758;28;20216;-32
2023/12/01 04:52:11;;;;;;;;;;;2.50;1.00;;;;;;5292210;28;20080;-32
2023/12/01 04:54:42;;;;;;;23.23;11.57;;;2.40;1.00;;;;;;5290939;28;19986;-32
2023/12/01 04:57:13;;;;;;;24.35;12.45;;;2.40;13.50;;;;;;5289389;28;20214;-32
2023/12/01 04:59:47;;;;;;;26.17;12.60;;;2.30;46.40;;;;;;5290237;27;20039;-32
2023/12/01 05:02:23;;;;;;;23.65;11.15;;;2.30;54.10;;;;;;5296504;27;20042;-32
2023/12/01 05:05:00;;;;;;;23.48;11.93;;;2.40;62.90;;;;;;5297225;27;20090;-32
2023/12/01 05:07:35;;;;;;;23.95;10.68;;;2.50;71.90;;;;;;5294343;27;20035;-32
2023/12/01 05:10:14;;;;;;;29.75;11.27;;;2.50;38.70;;;;;;5302990;27;20027;-32
2023/12/01 05:12:50;;;;;;;21.85;10.48;;;2.40;36.70;;;;;;5293249;27;20288;-32
2023/12/01 05:15:24;;;;;;;27.17;12.85;;;2.50;42.10;;;;;;5308399;27;20037;-33
2023/12/01 05:18:01;;;;;;;22.88;10.00;;;2.50;43.90;;;;;;5309530;27;20038;-32
2023/12/01 05:20:33;;;;;;;23.05;9.93;;;2.50;24.20;;;;;;5294054;27;20228;-33
2023/12/01 05:23:09;;;;;;;27.40;11.63;;;2.50;53.50;;;;;;5304461;27;20388;-33
2023/12/01 05:25:41;;;;;;;26.98;12.40;;;2.50;48.60;;;;;;5306194;27;20053;-33
2023/12/01 05:28:12;;;;;;;27.95;12.10;;;2.50;36.60;;;;;;5283239;28;20027;-33
2023/12/01 05:30:47;;;;;;;17.80;9.23;;;2.30;1.00;;;;;;5304131;27;20022;-40
2023/12/01 05:33:23;;;;;;;28.02;12.18;;;2.30;1.00;;;;;;5292627;27;20043;-41
2023/12/01 05:35:57;;;;;;;25.05;12.30;;;2.30;1.00;;;;;;5309623;27;20038;-41
2023/12/01 05:38:31;;;;;;;26.83;13.07;;;2.00;1.00;;;;;;5310431;27;20328;-41
2023/12/01 05:41:02;;;;;;;30.52;12.32;;;2.00;1.00;;;;;;5310513;27;20117;-41
2023/12/01 05:43:34;;;;;;;26.02;11.90;;;2.00;1.00;;;;;;5284830;27;20042;-41
2023/12/01 05:46:06;;;;;;;20.98;10.05;;;1.90;1.00;;;;;;5264108;28;20028;-41
2023/12/01 05:48:37;;;;;;;27.50;12.80;;;2.00;80.80;;;;;;5267947;28;20030;-41
2023/12/01 05:51:12;;;;;;;26.63;12.98;;;2.20;99.90;;;;;;5268431;28;20034;-41
2023/12/01 05:53:43;;;;;;;24.40;11.38;;;2.30;99.90;;;;;;5269401;28;20032;-41
2023/12/01 05:56:14;;;;;;;26.48;13.07;;;2.30;99.90;;;;;;5266184;28;20050;-41
2023/12/01 05:58:46;;;;;;;18.85;9.63;;;2.30;99.90;;;;;;5267738;28;20228;-41
2023/12/01 06:01:17;;;;;;;30.92;12.60;;;2.40;99.90;;;;;;5249909;28;20030;-41
2023/12/01 06:03:49;;;;;;;33.42;14.40;;;2.40;99.90;;;;;;5279325;28;20247;-41
2023/12/01 06:06:22;;;;;;;24.67;11.90;;;2.20;31.00;;;;;;5268928;28;20032;-41
2023/12/01 06:08:56;;;;;;;26.83;12.30;;;2.00;66.20;;;;;;5268397;28;20312;-41
2023/12/01 06:11:27;;;;;;;26.45;11.45;;;2.10;94.00;;;;;;5266377;28;20239;-38
2023/12/01 06:14:01;;;;;;;26.23;11.90;;;2.10;99.90;;;;;;5263999;28;20031;-38
2023/12/01 06:16:32;;;;;;;21.92;11.20;;;2.20;99.90;;;;;;5253807;28;20035;-37
2023/12/01 06:19:06;;;;;;;26.73;12.32;;;2.20;99.90;;;;;;5267989;28;20046;-37
2023/12/01 06:21:40;;;;;;;21.95;11.35;;;2.30;99.90;;;;;;5266973;28;20036;-37
2023/12/01 06:24:11;;;;;;;28.88;12.48;;;2.40;99.90;;;;;;5267711;28;20035;-37
2023/12/01 06:26:42;;;;;;;27.98;12.05;;;2.30;99.90;;;;;;5269304;28;20086;-37
2023/12/01 06:29:13;;;;;;;25.90;11.68;;;2.10;90.60;;;;;;5252699;28;20210;-37
2023/12/01 06:31:44;;;;;;;28.35;12.88;;;2.00;99.90;;;;;;5264226;28;20028;-37
2023/12/01 06:34:18;;;;;;;31.10;12.35;;;2.00;99.90;;;;;;5262717;28;20046;-37
2023/12/01 06:36:50;;;;;;;32.13;13.38;;;2.00;99.90;;;;;;5253283;28;20036;-37
2023/12/01 06:39:25;;;;;;;35.03;13.50;;;1.90;99.90;;;;;;5268774;28;20036;-37
2023/12/01 06:41:59;;;;;;;34.10;13.70;;;1.80;99.90;;;;;;5268017;28;20036;-38
2023/12/01 06:44:34;;;;;;;33.90;14.55;;;1.90;99.90;;;;;;5269227;28;20053;-37
2023/12/01 06:47:08;;;;;;;31.17;14.80;;;1.90;99.90;;;;;;5294026;27;20205;-38
2023/12/01 06:49:39;;;;;;;33.67;14.32;;;1.90;99.90;;;;;;5309184;27;20031;-38
2023/12/01 06:52:15;;;;;;;41.85;16.25;;;1.90;99.90;;;;;;5291886;27;20034;-38
2023/12/01 06:54:46;;;;;;;31.73;15.38;;;1.90;99.90;;;;;;5301410;27;20015;-37
2023/12/01 06:57:17;;;;;;;35.08;14.98;;;1.90;99.90;;;;;;5299548;27;20278;-40
2023/12/01 06:59:48;;;;;;;36.45;14.38;;;1.90;99.90;;;;;;5289594;27;20027;-40
2023/12/01 07:02:22;;;;;;;44.80;16.52;;;1.80;99.90;;;;;;5297336;27;20027;-40
2023/12/01 07:05:00;;;;;;;43.00;15.10;;;1.80;99.90;;;;;;5310445;27;20037;-40
2023/12/01 07:07:37;;;;;;;37.78;14.35;;;1.80;99.90;;;;;;5306968;27;20027;-40
2023/12/01 07:10:08;;;;;;;43.28;16.98;;;1.80;99.90;;;;;;5310774;28;20027;-40
2023/12/01 07:12:40;;;;;;;44.47;17.00;;;1.70;99.90;;;;;;5308776;28;20031;-40
2023/12/01 07:15:11;;;;;;;37.80;14.55;;;1.80;99.90;;;;;;5272091;28;20349;-40
2023/12/01 07:17:45;;;;;;;36.17;15.75;;;1.90;99.90;;;;;;5289616;28;20038;-40
2023/12/01 07:20:18;;;;;;;38.85;17.35;;;2.10;99.90;;;;;;5297717;28;20227;-40
2023/12/01 07:22:53;;;;;;;41.45;16.02;;;2.10;99.90;;;;;;5307661;28;20335;-40
2023/12/01 07:25:25;;;;;;;37.53;15.70;;;2.10;99.90;;;;;;5311062;27;20207;-40
2023/12/01 07:28:00;;;;;;;47.25;18.60;;;2.20;99.90;;;;;;5288042;27;20031;-40
2023/12/01 07:30:34;;;;;;;33.45;14.68;;;2.30;99.90;;;;;;5300236;27;20047;-41
2023/12/01 07:33:05;;;;;;;;;;;2.30;99.90;;;;;;5314128;27;20034;-40
2023/12/01 07:35:36;;;;;;;42.05;16.40;;;2.30;99.90;;;;;;5315838;27;19907;-41
2023/12/01 07:38:08;;;;;;;41.67;16.02;;;2.50;99.90;;;;;;5315544;27;20029;-40
2023/12/01 07:40:39;;;;;;;40.72;16.52;;;2.50;99.90;;;;;;5314401;27;20049;-41
2023/12/01 07:43:11;;;;;;;40.35;15.95;;;2.60;99.90;;;;;;5312751;27;20031;-40
2023/12/01 07:45:47;;;;;;;38.90;16.08;;;2.80;99.90;;;;;;5293179;27;20035;-40
2023/12/01 07:48:21;;;;;;;36.72;16.05;;;2.70;99.90;;;;;;5315188;27;20045;-40
2023/12/01 07:50:55;;;;;;;37.20;17.08;;;2.50;99.90;;;;;;5293033;27;20034;-42
2023/12/01 07:53:29;;;;;;;33.40;15.75;;;2.60;99.90;;;;;;5302374;27;20023;-40
2023/12/01 07:56:00;;;;;;;36.33;14.27;;;2.80;99.90;;;;;;5307026;27;20034;-40
2023/12/01 07:58:31;;;;;;;37.88;14.80;;;2.90;99.90;;;;;;5294313;27;20035;-40
2023/12/01 08:01:03;;;;;;;39.63;15.55;;;2.80;99.90;;;;;;5300527;27;20039;-40
2023/12/01 08:03:37;;;;;;;35.13;15.10;;;2.80;99.90;;;;;;5309622;27;20041;-40
2023/12/01 08:06:08;;;;;;;36.72;16.05;;;2.80;99.90;;;;;;5304929;27;20027;-40
2023/12/01 08:08:41;;;;;;;36.13;14.38;;;2.80;99.90;;;;;;5310964;27;20029;-40
2023/12/01 08:11:16;;;;;;;33.25;15.18;;;2.60;84.70;;;;;;5312988;27;20031;-40
2023/12/01 08:13:49;;;;;;;36.40;15.60;;;2.80;99.90;;;;;;5282397;28;20047;-40
2023/12/01 08:16:26;;;;;;;33.03;14.93;;;2.90;99.90;;;;;;5288087;28;20036;-40
2023/12/01 08:18:58;;;;;;;35.65;14.85;;;2.90;99.90;;;;;;5282154;28;20047;-40
2023/12/01 08:21:31;;;;;;;36.95;16.55;;;3.00;79.10;;;;;;5294046;27;20037;-40
2023/12/01 08:24:04;;;;;;;32.10;15.23;;;3.00;80.00;;;;;;5300876;27;20529;-39
2023/12/01 08:26:35;;;;;;;34.30;14.70;;;3.10;99.90;;;;;;5313874;27;20026;-40
2023/12/01 08:29:06;;;;;;;37.72;15.38;;;3.20;96.60;;;;;;5284633;27;20044;-39
2023/12/01 08:31:39;;;;;;;28.10;13.10;;;3.10;3.40;;;;;;5292056;27;20019;-40
2023/12/01 08:34:13;;;;;;;33.92;14.85;;;3.20;52.80;;;;;;5303077;27;20043;-40
2023/12/01 08:36:47;;;;;;;;;;;3.10;1.00;;;;;;5306317;27;20031;-40
2023/12/01 08:39:25;;;;;;;35.17;13.93;;;3.20;5.20;;;;;;5298433;27;19915;-40
2023/12/01 08:41:57;;;;;;;31.27;14.32;;;3.30;1.00;;;;;;5289991;27;20035;-40
2023/12/01 08:44:28;;;;;;;29.65;14.10;;;3.50;5.60;;;;;;5302056;27;20050;-40
2023/12/01 08:47:05;;;;;;;36.85;15.48;;;3.60;4.40;;;;;;5291859;27;20052;-40
2023/12/01 08:49:39;;;;;;;29.48;13.48;;;3.70;38.20;;;;;;5284811;27;20047;-40
2023/12/01 08:52:12;;;;;;;29.98;13.60;;;3.70;35.20;;;;;;5311725;27;20041;-40
2023/12/01 08:54:46;;;;;;;38.63;15.40;;;3.70;62.50;;;;;;5272917;27;20053;-40
2023/12/01 08:57:17;;;;;;;33.10;13.90;;;3.50;1.00;;;;;;5281297;27;20255;-40
2023/12/01 08:59:51;;;;;;;31.25;13.65;;;3.50;1.00;;;;;;5286099;27;20051;-40
2023/12/01 09:02:22;;;;;;;34.17;14.30;;;3.60;1.00;;;;;;5304776;27;20026;-40
2023/12/01 09:04:54;;;;;;;30.58;14.25;;;3.60;1.00;;;;;;5298989;27;20047;-44
2023/12/01 09:07:25;;;;;;;31.30;15.02;;;3.50;1.00;;;;;;5285404;27;20058;-40
2023/12/01 09:10:00;;;;;;;34.55;15.65;;;3.50;1.00;;;;;;5297029;27;20051;-40
2023/12/01 09:12:31;;;;;;;34.65;15.43;;;3.50;1.00;;;;;;5288514;27;20050;-41
2023/12/01 09:15:03;;;;;;;33.90;16.10;;;3.30;1.00;;;;;;5277775;27;20031;-40
2023/12/01 09:17:34;;;;;;;38.33;15.15;;;3.30;1.00;;;;;;5301784;27;20319;-41
2023/12/01 09:20:08;;;;;;;38.85;16.13;;;3.20;1.00;;;;;;5292300;27;20048;-41
2023/12/01 09:22:40;;;;;;;33.08;16.30;;;3.30;29.70;;;;;;5292890;27;20549;-41
2023/12/01 09:25:12;;;;;;;36.80;14.45;;;3.20;1.00;;;;;;5296552;27;20378;-41
2023/12/01 09:27:43;;;;;;;26.25;13.00;;;3.20;1.00;;;;;;5302281;27;20280;-41
2023/12/01 09:30:16;;;;;;;43.30;16.35;;;3.30;1.00;;;;;;5293895;27;20044;-41
2023/12/01 09:32:47;;;;;;;40.20;15.98;;;3.40;1.00;;;;;;5304984;27;20034;-41
2023/12/01 09:35:21;;;;;;;44.65;16.85;;;3.30;1.00;;;;;;5268042;27;20019;-41
2023/12/01 09:37:53;;;;;;;41.40;16.27;;;3.30;1.00;;;;;;5253723;27;20211;-41
2023/12/01 09:40:24;;;;;;;39.75;15.75;;;3.60;72.60;;;;;;5275581;27;20023;-41
2023/12/01 09:42:59;;;;;;;28.60;15.02;;;3.70;11.40;;;;;;5289975;27;20295;-41
2023/12/01 09:45:33;;;;;;;41.55;18.10;;;3.80;11.00;;;;;;5292354;27;20238;-41
2023/12/01 09:48:08;;;;;;;37.63;15.75;;;3.70;1.00;;;;;;5286338;27;20039;-41
2023/12/01 09:50:39;;;;;;;36.15;14.90;;;3.70;1.00;;;;;;5278472;27;20033;-41
2023/12/01 09:53:16;;;;;;;32.92;13.82;;;3.50;1.00;;;;;;5305537;27;20027;-41
2023/12/01 09:56:05;;;;;;;36.78;16.30;;;3.70;1.00;;;;;;5295207;27;20058;-41
2023/12/01 09:58:39;;;;;;;39.55;16.77;;;3.80;24.00;;;;;;5305083;27;20369;-41
2023/12/01 10:01:13;;;;;;;33.10;14.60;;;3.90;27.80;;;;;;5290543;27;20341;-41
2023/12/01 10:03:44;;;;;;;33.88;15.13;;;4.10;32.40;;;;;;5283440;27;20023;-41
2023/12/01 10:06:16;;;;;;;33.40;14.32;;;4.20;64.90;;;;;;5294138;27;20098;-41
2023/12/01 10:08:51;;;;;;;41.08;16.38;;;4.30;80.50;;;;;;5304195;27;20033;-41
2023/12/01 10:11:25;;;;;;;;;;;4.40;48.20;;;;;;5295882;27;20043;-41
2023/12/01 10:13:57;;;;;;;30.75;15.38;;;4.50;8.30;;;;;;5305872;27;20904;-41
2023/12/01 10:16:38;;;;;;;32.60;15.35;;;4.60;1.00;;;;;;5274362;27;29136;-41
2023/12/01 10:19:09;;;;;;;31.38;15.63;;;4.40;1.00;;;;;;5281874;27;20030;-41
2023/12/01 10:21:46;;;;;;;30.85;14.68;;;4.40;1.00;;;;;;5295580;27;20039;-41
2023/12/01 10:24:22;;;;;;;33.80;15.90;;;4.00;1.00;;;;;;5305133;27;20216;-41
2023/12/01 10:27:02;;;;;;;37.10;14.43;;;4.10;1.00;;;;;;5275039;27;20031;-41
2023/12/01 10:29:35;;;;;;;34.40;15.45;;;4.00;1.00;;;;;;5304561;27;20027;-41
2023/12/01 10:32:11;;;;;;;38.03;16.23;;;4.20;1.00;;;;;;5283231;27;20291;-41
2023/12/01 10:34:54;;;;;;;36.90;15.57;;;4.10;1.00;;;;;;5294948;27;20057;-41
2023/12/01 10:37:29;;;;;;;35.15;13.63;;;4.10;1.00;;;;;;5270073;28;20048;-41
2023/12/01 10:40:05;;;;;;;32.60;16.10;;;4.10;1.00;;;;;;5294628;27;20034;-41
2023/12/01 10:42:36;;;;;;;30.88;15.38;;;4.10;1.00;;;;;;5292257;27;20344;-40
2023/12/01 10:45:12;;;;;;;36.35;16.02;;;4.10;3.40;;;;;;5279426;27;20035;-40
2023/12/01 10:47:51;;;;;;;37.58;15.80;;;4.20;68.30;;;;;;5299136;27;20047;-40
2023/12/01 10:50:26;;;;;;;33.50;16.50;;;4.00;8.70;;;;;;5277760;28;20310;-39
2023/12/01 10:53:01;;;;;;;37.17;15.63;;;4.00;79.00;;;;;;5265045;27;20047;-44
2023/12/01 10:55:34;;;;;;;38.75;15.23;;;4.00;94.00;;;;;;5291940;27;20352;-49
2023/12/01 10:58:11;;;;;;;32.75;15.18;;;4.00;99.90;;;;;;5292907;27;20062;-61
2023/12/01 11:00:54;;;;;;;39.85;16.33;;;4.00;99.90;;;;;;5296854;27;20027;-56
2023/12/01 11:03:30;;;;;;;33.10;15.90;;;4.00;99.90;;;;;;5294885;27;20051;-44
2023/12/01 11:06:15;;;;;;;29.27;15.40;;;4.00;99.90;;;;;;5308692;27;20031;-45
2023/12/01 11:08:55;;;;;;;45.50;16.95;;;4.00;99.90;;;;;;5276079;28;20054;-52
2023/12/01 11:11:38;;;;;;;29.15;13.48;;;3.80;41.50;;;;;;5301609;28;20038;-53
2023/12/01 11:14:17;;;;;;;35.92;15.82;;;3.80;72.40;;;;;;5298255;28;20043;-53
2023/12/01 11:16:51;;;;;;;31.75;15.50;;;3.90;99.90;;;;;;5284390;28;20024;-72
2023/12/01 11:19:23;;;;;;;35.35;16.33;;;3.90;99.90;;;;;;5271869;28;20371;-55
2023/12/01 11:21:58;;;;;;;37.85;16.15;;;3.90;99.90;;;;;;5303450;27;20023;-53
2023/12/01 11:24:31;;;;;;;35.67;17.13;;;3.70;70.00;;;;;;5299031;28;20078;-55
2023/12/01 11:27:03;;;;;;;41.50;16.35;;;3.60;99.90;;;;;;5272553;28;20038;-58
2023/12/01 11:29:39;;;;;;;37.80;17.65;;;3.70;99.90;;;;;;5282082;28;20039;-56
2023/12/01 11:32:13;;;;;;;38.00;16.42;;;3.80;99.90;;;;;;5303532;28;20019;-58
2023/12/01 11:35:02;;;;;;;;;;;3.70;75.00;;;;;;5299404;28;20073;-69
2023/12/01 11:38:04;;;;;;;49.50;17.75;;;3.50;21.20;;;;;;5311820;28;19913;-64
2023/12/01 11:40:41;;;;;;;33.78;15.77;;;3.40;99.90;;;;;;5299114;28;20047;-56
2023/12/01 11:43:15;;;;;;;41.63;16.92;;;3.50;99.90;;;;;;5299947;28;20023;-57
2023/12/01 11:45:50;;;;;;;40.92;15.48;;;3.30;99.90;;;;;;5275835;28;20061;-58
2023/12/01 11:48:21;;;;;;;41.92;17.58;;;3.30;99.90;;;;;;5271226;28;20327;-57
2023/12/01 11:50:52;;;;;;;45.50;18.85;;;3.30;99.90;;;;;;5292188;28;20040;-57
2023/12/01 11:53:24;;;;;;;42.25;17.50;;;3.30;99.90;;;;;;5276256;28;20216;-56
2023/12/01 11:55:55;;;;;;;47.17;20.15;;;3.40;99.90;;;;;;5275617;28;20047;-56
2023/12/01 11:58:29;;;;;;;66.50;29.80;;;3.20;99.90;;;;;;5279194;28;20378;-57
2023/12/01 12:01:03;;;;;;;40.67;17.27;;;3.10;99.90;;;;;;5276799;28;20149;-55
2023/12/01 12:03:37;;;;;;;;;;;2.80;99.90;;;;;;5282292;28;20228;-56
2023/12/01 12:06:11;;;;;;;33.00;13.90;;;2.50;99.90;;;;;;5294874;28;20299;-55
2023/12/01 12:08:43;;;;;;;45.60;15.20;;;2.30;99.90;;;;;;5289109;28;20019;-56
2023/12/01 12:11:18;;;;;;;38.90;15.80;;;2.30;99.90;;;;;;5267514;28;20043;-55
2023/12/01 12:13:58;;;;;;;33.05;14.70;;;2.20;99.90;;;;;;5293355;28;20027;-54
2023/12/01 12:16:32;;;;;;;40.25;16.17;;;2.10;99.90;;;;;;5295915;27;20299;-54
2023/12/01 12:19:03;;;;;;;31.42;14.35;;;2.10;99.90;;;;;;5295867;27;20224;-55
2023/12/01 12:21:38;;;;;;;35.83;16.10;;;2.00;99.90;;;;;;5289789;27;20054;-56
2023/12/01 12:24:15;;;;;;;34.80;15.15;;;1.90;99.90;;;;;;5291765;28;20032;-55
2023/12/01 12:26:57;;;;;;;31.55;13.27;;;1.90;99.90;;;;;;5297466;27;20069;-55
2023/12/01 12:29:28;;;;;;;37.95;15.48;;;2.00;99.90;;;;;;5289393;28;20031;-55
2023/12/01 12:32:01;;;;;;;35.53;15.82;;;1.90;99.90;;;;;;5255076;28;20054;-49
2023/12/01 12:34:38;;;;;;;37.20;15.05;;;1.90;99.90;;;;;;5287092;28;20024;-51
2023/12/01 12:37:13;;;;;;;45.22;16.75;;;1.90;99.90;;;;;;5278843;27;20284;-51
2023/12/01 12:39:57;;;;;;;39.78;16.15;;;1.90;99.90;;;;;;5278114;28;20043;-50
2023/12/01 12:42:28;;;;;;;31.83;14.95;;;1.80;99.90;;;;;;5273320;28;20047;-50
2023/12/01 12:45:08;;;;;;;39.42;17.77;;;1.80;99.90;;;;;;5309528;27;20376;-51
2023/12/01 12:47:40;;;;;;;43.47;16.88;;;1.80;99.90;;;;;;5264829;27;20044;-50
2023/12/01 12:50:11;;;;;;;34.90;14.23;;;1.80;99.90;;;;;;5310110;27;20027;-49
2023/12/01 12:52:42;;;;;;;37.22;15.43;;;1.90;99.90;;;;;;5280311;27;20036;-48
2023/12/01 12:55:28;;;;;;;44.03;17.05;;;2.00;99.90;;;;;;5299644;27;20046;-48
2023/12/01 12:58:03;;;;;;;32.17;15.05;;;1.90;99.90;;;;;;5277588;27;20047;-48
2023/12/01 13:00:34;;;;;;;;;;;1.80;99.90;;;;;;5304378;27;20045;-49
2023/12/01 13:03:05;;;;;;;33.03;14.00;;;1.80;99.90;;;;;;5279902;27;19915;-47
2023/12/01 13:05:36;;;;;;;30.77;14.05;;;1.90;99.90;;;;;;5313620;27;20041;-55
2023/12/01 13:08:07;;;;;;;32.03;14.27;;;1.80;99.90;;;;;;5301185;27;20252;-46
2023/12/01 13:10:39;;;;;;;26.27;12.60;;;1.90;99.90;;;;;;5308242;27;20037;-47
2023/12/01 13:13:10;;;;;;;34.08;14.13;;;2.00;99.90;;;;;;5300395;27;20039;-46
2023/12/01 13:15:44;;;;;;;26.35;12.48;;;2.10;99.90;;;;;;5309382;27;20108;-47